sensor_id;sensor_type;location;lat;lon;timestamp;P1;durP1;ratioP1;P2;durP2;ratioP2
45236;SDS011;30973;51.442;3.580;2023-11-21T00:00:14;7.18;;;3.40;;
45236;SDS011;30973;51.442;3.580;2023-11-21T00:02:41;10.18;;;3.50;;
45236;SDS011;30973;51.442;3.580;2023-11-21T00:05:10;6.53;;;3.50;;
45236;SDS011;30973;51.442;3.580;2023-11-21T00:07:39;6.70;;;3.00;;
45236;SDS011;30973;51.442;3.580;2023-11-21T00:10:07;7.40;;;3.10;;
45236;SDS011;30973;51.442;3.580;2023-11-21T00:12:35;6.60;;;3.17;;
45236;SDS011;30973;51.442;3.580;2023-11-21T00:15:02;8.30;;;3.08;;
45236;SDS011;30973;51.442;3.580;2023-11-21T00:17:36;8.68;;;3.10;;
45236;SDS011;30973;51.442;3.580;2023-11-21T00:20:04;6.93;;;2.72;;
45236;SDS011;30973;51.442;3.580;2023-11-21T00:22:33;7.03;;;2.88;;
45236;SDS011;30973;51.442;3.580;2023-11-21T00:25:01;5.05;;;2.40;;
45236;SDS011;30973;51.442;3.580;2023-11-21T00:27:30;6.80;;;2.63;;
45236;SDS011;30973;51.442;3.580;2023-11-21T00:29:57;7.10;;;2.92;;
45236;SDS011;30973;51.442;3.580;2023-11-21T00:32:25;6.47;;;2.60;;
45236;SDS011;30973;51.442;3.580;2023-11-21T00:34:52;10.10;;;2.63;;
45236;SDS011;30973;51.442;3.580;2023-11-21T00:37:21;6.70;;;2.40;;
45236;SDS011;30973;51.442;3.580;2023-11-21T00:39:48;9.38;;;3.25;;
45236;SDS011;30973;51.442;3.580;2023-11-21T00:42:16;6.68;;;2.53;;
45236;SDS011;30973;51.442;3.580;2023-11-21T00:44:44;6.85;;;2.70;;
45236;SDS011;30973;51.442;3.580;2023-11-21T00:47:11;6.43;;;2.30;;
45236;SDS011;30973;51.442;3.580;2023-11-21T00:49:39;7.00;;;2.30;;
45236;SDS011;30973;51.442;3.580;2023-11-21T00:52:08;5.18;;;2.60;;
45236;SDS011;30973;51.442;3.580;2023-11-21T00:54:35;5.00;;;2.33;;
45236;SDS011;30973;51.442;3.580;2023-11-21T00:57:04;5.57;;;2.35;;
45236;SDS011;30973;51.442;3.580;2023-11-21T00:59:31;4.00;;;2.13;;
45236;SDS011;30973;51.442;3.580;2023-11-21T01:01:59;4.82;;;2.17;;
45236;SDS011;30973;51.442;3.580;2023-11-21T01:04:27;6.18;;;2.13;;
45236;SDS011;30973;51.442;3.580;2023-11-21T01:06:55;3.80;;;2.47;;
45236;SDS011;30973;51.442;3.580;2023-11-21T01:09:22;5.15;;;2.00;;
45236;SDS011;30973;51.442;3.580;2023-11-21T01:11:51;4.50;;;1.98;;
45236;SDS011;30973;51.442;3.580;2023-11-21T01:14:18;3.70;;;2.15;;
45236;SDS011;30973;51.442;3.580;2023-11-21T01:16:46;3.50;;;1.80;;
45236;SDS011;30973;51.442;3.580;2023-11-21T01:19:13;4.72;;;2.40;;
45236;SDS011;30973;51.442;3.580;2023-11-21T01:21:41;7.43;;;2.30;;
45236;SDS011;30973;51.442;3.580;2023-11-21T01:24:08;5.07;;;2.42;;
45236;SDS011;30973;51.442;3.580;2023-11-21T01:26:36;6.85;;;2.75;;
45236;SDS011;30973;51.442;3.580;2023-11-21T01:29:03;4.80;;;2.83;;
45236;SDS011;30973;51.442;3.580;2023-11-21T01:31:31;4.38;;;2.42;;
45236;SDS011;30973;51.442;3.580;2023-11-21T01:33:58;5.18;;;2.70;;
45236;SDS011;30973;51.442;3.580;2023-11-21T01:36:30;4.22;;;2.58;;
45236;SDS011;30973;51.442;3.580;2023-11-21T01:38:59;6.55;;;2.55;;
45236;SDS011;30973;51.442;3.580;2023-11-21T01:41:27;5.13;;;2.83;;
45236;SDS011;30973;51.442;3.580;2023-11-21T01:43:55;6.35;;;2.90;;
45236;SDS011;30973;51.442;3.580;2023-11-21T01:46:23;6.07;;;2.88;;
45236;SDS011;30973;51.442;3.580;2023-11-21T01:48:50;5.10;;;3.28;;
45236;SDS011;30973;51.442;3.580;2023-11-21T01:51:19;5.90;;;3.55;;
45236;SDS011;30973;51.442;3.580;2023-11-21T01:53:47;3.15;;;2.50;;
45236;SDS011;30973;51.442;3.580;2023-11-21T01:56:15;4.45;;;2.50;;
45236;SDS011;30973;51.442;3.580;2023-11-21T01:58:43;3.92;;;2.97;;
45236;SDS011;30973;51.442;3.580;2023-11-21T02:01:13;6.85;;;2.95;;
45236;SDS011;30973;51.442;3.580;2023-11-21T02:03:41;4.70;;;2.28;;
45236;SDS011;30973;51.442;3.580;2023-11-21T02:06:08;5.20;;;2.60;;
45236;SDS011;30973;51.442;3.580;2023-11-21T02:08:36;3.08;;;2.53;;
45236;SDS011;30973;51.442;3.580;2023-11-21T02:11:04;4.18;;;2.45;;
45236;SDS011;30973;51.442;3.580;2023-11-21T02:13:31;5.78;;;2.92;;
45236;SDS011;30973;51.442;3.580;2023-11-21T02:16:00;4.05;;;2.33;;
45236;SDS011;30973;51.442;3.580;2023-11-21T02:18:27;5.57;;;2.88;;
45236;SDS011;30973;51.442;3.580;2023-11-21T02:20:56;4.28;;;2.42;;
45236;SDS011;30973;51.442;3.580;2023-11-21T02:23:23;5.63;;;2.20;;
45236;SDS011;30973;51.442;3.580;2023-11-21T02:25:55;4.18;;;2.03;;
45236;SDS011;30973;51.442;3.580;2023-11-21T02:28:23;4.25;;;2.20;;
45236;SDS011;30973;51.442;3.580;2023-11-21T02:30:52;3.55;;;1.65;;
45236;SDS011;30973;51.442;3.580;2023-11-21T02:33:24;3.05;;;1.80;;
45236;SDS011;30973;51.442;3.580;2023-11-21T02:35:52;3.22;;;1.90;;
45236;SDS011;30973;51.442;3.580;2023-11-21T02:38:21;3.90;;;2.10;;
45236;SDS011;30973;51.442;3.580;2023-11-21T02:40:48;3.63;;;2.28;;
45236;SDS011;30973;51.442;3.580;2023-11-21T02:43:16;3.05;;;2.22;;
45236;SDS011;30973;51.442;3.580;2023-11-21T02:45:44;3.42;;;2.30;;
45236;SDS011;30973;51.442;3.580;2023-11-21T02:48:11;4.47;;;2.55;;
45236;SDS011;30973;51.442;3.580;2023-11-21T02:50:39;3.97;;;2.50;;
45236;SDS011;30973;51.442;3.580;2023-11-21T02:53:06;4.43;;;2.38;;
45236;SDS011;30973;51.442;3.580;2023-11-21T02:55:34;5.30;;;2.63;;
45236;SDS011;30973;51.442;3.580;2023-11-21T02:58:02;3.78;;;2.78;;
45236;SDS011;30973;51.442;3.580;2023-11-21T03:00:33;4.80;;;2.80;;
45236;SDS011;30973;51.442;3.580;2023-11-21T03:03:00;5.35;;;3.10;;
45236;SDS011;30973;51.442;3.580;2023-11-21T03:05:28;8.45;;;2.63;;
45236;SDS011;30973;51.442;3.580;2023-11-21T03:07:56;5.25;;;2.70;;
45236;SDS011;30973;51.442;3.580;2023-11-21T03:10:25;7.75;;;3.05;;
45236;SDS011;30973;51.442;3.580;2023-11-21T03:12:52;4.45;;;3.33;;
45236;SDS011;30973;51.442;3.580;2023-11-21T03:15:20;8.18;;;3.42;;
45236;SDS011;30973;51.442;3.580;2023-11-21T03:17:47;6.18;;;3.33;;
45236;SDS011;30973;51.442;3.580;2023-11-21T03:20:15;7.43;;;3.80;;
45236;SDS011;30973;51.442;3.580;2023-11-21T03:22:43;6.13;;;3.47;;
45236;SDS011;30973;51.442;3.580;2023-11-21T03:25:11;6.20;;;3.40;;
45236;SDS011;30973;51.442;3.580;2023-11-21T03:27:38;5.15;;;3.50;;
45236;SDS011;30973;51.442;3.580;2023-11-21T03:30:07;4.07;;;3.20;;
45236;SDS011;30973;51.442;3.580;2023-11-21T03:32:35;7.13;;;3.92;;
45236;SDS011;30973;51.442;3.580;2023-11-21T03:35:03;4.32;;;3.47;;
45236;SDS011;30973;51.442;3.580;2023-11-21T03:37:33;4.75;;;3.38;;
45236;SDS011;30973;51.442;3.580;2023-11-21T03:40:00;4.75;;;3.13;;
45236;SDS011;30973;51.442;3.580;2023-11-21T03:42:30;8.35;;;3.92;;
45236;SDS011;30973;51.442;3.580;2023-11-21T03:44:58;6.35;;;3.80;;
45236;SDS011;30973;51.442;3.580;2023-11-21T03:47:26;4.82;;;3.20;;
45236;SDS011;30973;51.442;3.580;2023-11-21T03:49:53;5.05;;;3.28;;
45236;SDS011;30973;51.442;3.580;2023-11-21T03:52:21;4.93;;;3.40;;
45236;SDS011;30973;51.442;3.580;2023-11-21T03:54:48;4.90;;;3.55;;
45236;SDS011;30973;51.442;3.580;2023-11-21T03:57:16;6.28;;;3.65;;
45236;SDS011;30973;51.442;3.580;2023-11-21T03:59:43;6.15;;;4.13;;
45236;SDS011;30973;51.442;3.580;2023-11-21T04:02:10;6.38;;;4.72;;
45236;SDS011;30973;51.442;3.580;2023-11-21T04:04:38;5.28;;;4.15;;
45236;SDS011;30973;51.442;3.580;2023-11-21T04:07:05;6.20;;;4.38;;
45236;SDS011;30973;51.442;3.580;2023-11-21T04:09:33;7.13;;;4.32;;
45236;SDS011;30973;51.442;3.580;2023-11-21T04:12:02;6.75;;;4.57;;
45236;SDS011;30973;51.442;3.580;2023-11-21T04:14:30;5.55;;;4.15;;
45236;SDS011;30973;51.442;3.580;2023-11-21T04:16:58;4.97;;;4.10;;
45236;SDS011;30973;51.442;3.580;2023-11-21T04:19:25;5.60;;;3.92;;
45236;SDS011;30973;51.442;3.580;2023-11-21T04:21:53;9.02;;;4.45;;
45236;SDS011;30973;51.442;3.580;2023-11-21T04:24:20;6.80;;;4.15;;
45236;SDS011;30973;51.442;3.580;2023-11-21T04:26:48;6.25;;;3.95;;
45236;SDS011;30973;51.442;3.580;2023-11-21T04:29:15;7.60;;;4.20;;
45236;SDS011;30973;51.442;3.580;2023-11-21T04:31:42;5.93;;;4.68;;
45236;SDS011;30973;51.442;3.580;2023-11-21T04:34:10;5.97;;;4.35;;
45236;SDS011;30973;51.442;3.580;2023-11-21T04:36:37;8.23;;;4.28;;
45236;SDS011;30973;51.442;3.580;2023-11-21T04:39:05;7.05;;;4.32;;
45236;SDS011;30973;51.442;3.580;2023-11-21T04:41:33;6.90;;;4.32;;
45236;SDS011;30973;51.442;3.580;2023-11-21T04:44:00;6.18;;;3.97;;
45236;SDS011;30973;51.442;3.580;2023-11-21T04:46:28;4.65;;;3.45;;
45236;SDS011;30973;51.442;3.580;2023-11-21T04:48:56;6.47;;;3.80;;
45236;SDS011;30973;51.442;3.580;2023-11-21T04:51:23;5.97;;;3.55;;
45236;SDS011;30973;51.442;3.580;2023-11-21T04:53:50;4.50;;;2.92;;
45236;SDS011;30973;51.442;3.580;2023-11-21T04:56:18;4.93;;;3.20;;
45236;SDS011;30973;51.442;3.580;2023-11-21T04:58:46;4.30;;;2.85;;
45236;SDS011;30973;51.442;3.580;2023-11-21T05:01:13;3.67;;;3.00;;
45236;SDS011;30973;51.442;3.580;2023-11-21T05:03:41;5.28;;;2.90;;
45236;SDS011;30973;51.442;3.580;2023-11-21T05:06:12;4.15;;;2.85;;
45236;SDS011;30973;51.442;3.580;2023-11-21T05:08:40;4.65;;;2.60;;
45236;SDS011;30973;51.442;3.580;2023-11-21T05:11:08;3.50;;;2.75;;
45236;SDS011;30973;51.442;3.580;2023-11-21T05:13:37;5.35;;;3.05;;
45236;SDS011;30973;51.442;3.580;2023-11-21T05:16:05;4.93;;;2.80;;
45236;SDS011;30973;51.442;3.580;2023-11-21T05:18:33;4.40;;;2.72;;
45236;SDS011;30973;51.442;3.580;2023-11-21T05:21:01;2.95;;;2.20;;
45236;SDS011;30973;51.442;3.580;2023-11-21T05:23:29;2.95;;;2.42;;
45236;SDS011;30973;51.442;3.580;2023-11-21T05:25:56;2.60;;;2.13;;
45236;SDS011;30973;51.442;3.580;2023-11-21T05:28:24;4.05;;;2.20;;
45236;SDS011;30973;51.442;3.580;2023-11-21T05:30:52;3.20;;;2.60;;
45236;SDS011;30973;51.442;3.580;2023-11-21T05:33:40;2.80;;;2.13;;
45236;SDS011;30973;51.442;3.580;2023-11-21T05:36:07;3.33;;;2.35;;
45236;SDS011;30973;51.442;3.580;2023-11-21T05:38:36;3.05;;;2.13;;
45236;SDS011;30973;51.442;3.580;2023-11-21T05:41:03;2.63;;;2.15;;
45236;SDS011;30973;51.442;3.580;2023-11-21T05:43:31;2.08;;;1.50;;
45236;SDS011;30973;51.442;3.580;2023-11-21T05:46:02;2.38;;;1.90;;
45236;SDS011;30973;51.442;3.580;2023-11-21T05:48:29;1.90;;;1.70;;
45236;SDS011;30973;51.442;3.580;2023-11-21T05:50:56;2.08;;;1.83;;
45236;SDS011;30973;51.442;3.580;2023-11-21T05:53:25;1.98;;;1.77;;
45236;SDS011;30973;51.442;3.580;2023-11-21T05:55:52;2.10;;;1.88;;
45236;SDS011;30973;51.442;3.580;2023-11-21T05:58:20;3.08;;;1.80;;
45236;SDS011;30973;51.442;3.580;2023-11-21T06:00:47;3.30;;;2.00;;
45236;SDS011;30973;51.442;3.580;2023-11-21T06:03:15;2.75;;;2.00;;
45236;SDS011;30973;51.442;3.580;2023-11-21T06:05:44;2.50;;;2.30;;
45236;SDS011;30973;51.442;3.580;2023-11-21T06:08:11;3.72;;;1.80;;
45236;SDS011;30973;51.442;3.580;2023-11-21T06:10:38;3.60;;;2.30;;
45236;SDS011;30973;51.442;3.580;2023-11-21T06:13:06;4.45;;;2.40;;
45236;SDS011;30973;51.442;3.580;2023-11-21T06:15:34;3.70;;;2.08;;
45236;SDS011;30973;51.442;3.580;2023-11-21T06:18:01;3.10;;;1.98;;
45236;SDS011;30973;51.442;3.580;2023-11-21T06:20:29;3.33;;;1.83;;
45236;SDS011;30973;51.442;3.580;2023-11-21T06:22:56;2.53;;;1.88;;
45236;SDS011;30973;51.442;3.580;2023-11-21T06:25:24;3.53;;;1.85;;
45236;SDS011;30973;51.442;3.580;2023-11-21T06:27:51;2.50;;;2.00;;
45236;SDS011;30973;51.442;3.580;2023-11-21T06:30:20;2.35;;;1.85;;
45236;SDS011;30973;51.442;3.580;2023-11-21T06:32:51;2.00;;;1.60;;
45236;SDS011;30973;51.442;3.580;2023-11-21T06:35:19;2.55;;;1.30;;
45236;SDS011;30973;51.442;3.580;2023-11-21T06:37:47;3.17;;;1.65;;
45236;SDS011;30973;51.442;3.580;2023-11-21T06:40:16;2.35;;;1.30;;
45236;SDS011;30973;51.442;3.580;2023-11-21T06:42:47;3.35;;;1.40;;
45236;SDS011;30973;51.442;3.580;2023-11-21T06:45:16;1.77;;;1.30;;
45236;SDS011;30973;51.442;3.580;2023-11-21T06:47:44;2.17;;;1.20;;
45236;SDS011;30973;51.442;3.580;2023-11-21T06:50:13;2.38;;;1.33;;
45236;SDS011;30973;51.442;3.580;2023-11-21T06:52:40;3.30;;;1.60;;
45236;SDS011;30973;51.442;3.580;2023-11-21T06:55:09;2.67;;;1.30;;
45236;SDS011;30973;51.442;3.580;2023-11-21T06:57:37;2.42;;;1.40;;
45236;SDS011;30973;51.442;3.580;2023-11-21T07:00:05;2.88;;;1.33;;
45236;SDS011;30973;51.442;3.580;2023-11-21T07:02:36;4.20;;;1.55;;
45236;SDS011;30973;51.442;3.580;2023-11-21T07:05:03;1.90;;;1.30;;
45236;SDS011;30973;51.442;3.580;2023-11-21T07:07:32;1.80;;;1.10;;
45236;SDS011;30973;51.442;3.580;2023-11-21T07:10:02;3.53;;;1.02;;
45236;SDS011;30973;51.442;3.580;2023-11-21T07:12:30;1.65;;;1.20;;
45236;SDS011;30973;51.442;3.580;2023-11-21T07:14:58;2.20;;;1.20;;
45236;SDS011;30973;51.442;3.580;2023-11-21T07:17:25;1.83;;;1.27;;
45236;SDS011;30973;51.442;3.580;2023-11-21T07:19:53;2.45;;;1.20;;
45236;SDS011;30973;51.442;3.580;2023-11-21T07:22:30;2.00;;;1.02;;
45236;SDS011;30973;51.442;3.580;2023-11-21T07:24:58;1.83;;;0.98;;
45236;SDS011;30973;51.442;3.580;2023-11-21T07:27:25;2.85;;;1.20;;
45236;SDS011;30973;51.442;3.580;2023-11-21T07:29:53;2.28;;;1.00;;
45236;SDS011;30973;51.442;3.580;2023-11-21T07:32:20;1.50;;;1.00;;
45236;SDS011;30973;51.442;3.580;2023-11-21T07:34:48;2.67;;;1.20;;
45236;SDS011;30973;51.442;3.580;2023-11-21T07:37:16;2.80;;;1.10;;
45236;SDS011;30973;51.442;3.580;2023-11-21T07:46:43;2.67;;;1.63;;
45236;SDS011;30973;51.442;3.580;2023-11-21T07:49:35;2.00;;;1.20;;
45236;SDS011;30973;51.442;3.580;2023-11-21T07:52:02;2.22;;;1.25;;
45236;SDS011;30973;51.442;3.580;2023-11-21T07:54:31;2.53;;;1.30;;
45236;SDS011;30973;51.442;3.580;2023-11-21T07:56:58;2.35;;;1.65;;
45236;SDS011;30973;51.442;3.580;2023-11-21T07:59:28;5.07;;;2.00;;
45236;SDS011;30973;51.442;3.580;2023-11-21T08:01:57;6.47;;;2.40;;
45236;SDS011;30973;51.442;3.580;2023-11-21T08:04:24;3.13;;;2.03;;
45236;SDS011;30973;51.442;3.580;2023-11-21T08:07:12;6.15;;;1.58;;
45236;SDS011;30973;51.442;3.580;2023-11-21T08:10:22;4.30;;;1.77;;
45236;SDS011;30973;51.442;3.580;2023-11-21T08:12:56;3.08;;;1.65;;
45236;SDS011;30973;51.442;3.580;2023-11-21T08:15:53;2.40;;;1.38;;
45236;SDS011;30973;51.442;3.580;2023-11-21T08:18:34;2.85;;;1.58;;
45236;SDS011;30973;51.442;3.580;2023-11-21T08:24:48;3.13;;;1.35;;
45236;SDS011;30973;51.442;3.580;2023-11-21T08:27:20;2.85;;;1.33;;
45236;SDS011;30973;51.442;3.580;2023-11-21T08:29:47;2.50;;;1.75;;
45236;SDS011;30973;51.442;3.580;2023-11-21T08:32:15;4.60;;;1.50;;
45236;SDS011;30973;51.442;3.580;2023-11-21T08:34:42;4.72;;;1.70;;
45236;SDS011;30973;51.442;3.580;2023-11-21T08:37:11;4.45;;;1.50;;
45236;SDS011;30973;51.442;3.580;2023-11-21T08:39:38;6.13;;;1.73;;
45236;SDS011;30973;51.442;3.580;2023-11-21T08:42:08;4.60;;;1.60;;
45236;SDS011;30973;51.442;3.580;2023-11-21T08:44:36;7.43;;;1.50;;
45236;SDS011;30973;51.442;3.580;2023-11-21T08:47:05;5.07;;;1.45;;
45236;SDS011;30973;51.442;3.580;2023-11-21T08:49:34;4.78;;;1.83;;
45236;SDS011;30973;51.442;3.580;2023-11-21T08:52:02;7.18;;;2.17;;
45236;SDS011;30973;51.442;3.580;2023-11-21T08:54:31;4.55;;;1.50;;
45236;SDS011;30973;51.442;3.580;2023-11-21T08:56:58;3.55;;;1.60;;
45236;SDS011;30973;51.442;3.580;2023-11-21T08:59:26;7.35;;;1.60;;
45236;SDS011;30973;51.442;3.580;2023-11-21T09:01:54;4.60;;;2.00;;
45236;SDS011;30973;51.442;3.580;2023-11-21T09:04:21;5.28;;;1.77;;
45236;SDS011;30973;51.442;3.580;2023-11-21T09:06:49;4.57;;;2.28;;
45236;SDS011;30973;51.442;3.580;2023-11-21T09:09:16;8.45;;;2.35;;
45236;SDS011;30973;51.442;3.580;2023-11-21T09:11:44;7.05;;;2.42;;
45236;SDS011;30973;51.442;3.580;2023-11-21T09:14:12;8.75;;;2.75;;
45236;SDS011;30973;51.442;3.580;2023-11-21T09:16:41;7.88;;;3.25;;
45236;SDS011;30973;51.442;3.580;2023-11-21T09:19:09;7.00;;;3.08;;
45236;SDS011;30973;51.442;3.580;2023-11-21T09:21:38;9.77;;;2.45;;
45236;SDS011;30973;51.442;3.580;2023-11-21T09:24:05;4.75;;;1.90;;
45236;SDS011;30973;51.442;3.580;2023-11-21T09:26:35;7.95;;;2.28;;
45236;SDS011;30973;51.442;3.580;2023-11-21T09:29:02;6.20;;;2.40;;
45236;SDS011;30973;51.442;3.580;2023-11-21T09:31:30;8.80;;;2.67;;
45236;SDS011;30973;51.442;3.580;2023-11-21T09:34:00;7.93;;;2.70;;
45236;SDS011;30973;51.442;3.580;2023-11-21T09:36:28;5.38;;;2.88;;
45236;SDS011;30973;51.442;3.580;2023-11-21T09:38:57;8.68;;;3.00;;
45236;SDS011;30973;51.442;3.580;2023-11-21T09:41:34;8.75;;;3.35;;
45236;SDS011;30973;51.442;3.580;2023-11-21T09:44:05;10.50;;;2.97;;
45236;SDS011;30973;51.442;3.580;2023-11-21T09:46:37;6.60;;;2.80;;
45236;SDS011;30973;51.442;3.580;2023-11-21T09:49:08;9.98;;;3.67;;
45236;SDS011;30973;51.442;3.580;2023-11-21T09:51:39;8.73;;;3.15;;
45236;SDS011;30973;51.442;3.580;2023-11-21T09:54:10;10.45;;;3.40;;
45236;SDS011;30973;51.442;3.580;2023-11-21T09:56:38;8.07;;;3.10;;
45236;SDS011;30973;51.442;3.580;2023-11-21T09:59:05;7.43;;;2.33;;
45236;SDS011;30973;51.442;3.580;2023-11-21T10:01:36;11.95;;;3.70;;
45236;SDS011;30973;51.442;3.580;2023-11-21T10:04:04;10.65;;;3.85;;
45236;SDS011;30973;51.442;3.580;2023-11-21T10:06:39;12.00;;;3.47;;
45236;SDS011;30973;51.442;3.580;2023-11-21T10:09:11;10.18;;;4.07;;
45236;SDS011;30973;51.442;3.580;2023-11-21T10:11:42;13.10;;;5.32;;
45236;SDS011;30973;51.442;3.580;2023-11-21T10:14:12;8.27;;;3.63;;
45236;SDS011;30973;51.442;3.580;2023-11-21T10:16:40;17.98;;;6.60;;
45236;SDS011;30973;51.442;3.580;2023-11-21T10:19:09;34.88;;;13.80;;
45236;SDS011;30973;51.442;3.580;2023-11-21T10:21:40;18.27;;;5.90;;
45236;SDS011;30973;51.442;3.580;2023-11-21T10:24:07;40.30;;;16.05;;
45236;SDS011;30973;51.442;3.580;2023-11-21T10:26:35;73.22;;;30.10;;
45236;SDS011;30973;51.442;3.580;2023-11-21T10:29:18;8.48;;;2.63;;
45236;SDS011;30973;51.442;3.580;2023-11-21T10:31:49;8.35;;;2.33;;
45236;SDS011;30973;51.442;3.580;2023-11-21T10:34:18;7.68;;;3.70;;
45236;SDS011;30973;51.442;3.580;2023-11-21T10:36:46;5.07;;;2.20;;
45236;SDS011;30973;51.442;3.580;2023-11-21T10:39:18;6.93;;;1.70;;
45236;SDS011;30973;51.442;3.580;2023-11-21T10:41:47;5.70;;;1.60;;
45236;SDS011;30973;51.442;3.580;2023-11-21T10:44:18;7.60;;;2.15;;
45236;SDS011;30973;51.442;3.580;2023-11-21T10:46:51;4.43;;;1.50;;
45236;SDS011;30973;51.442;3.580;2023-11-21T10:49:22;5.93;;;1.83;;
45236;SDS011;30973;51.442;3.580;2023-11-21T10:51:52;7.22;;;2.08;;
45236;SDS011;30973;51.442;3.580;2023-11-21T10:54:20;2.95;;;1.77;;
45236;SDS011;30973;51.442;3.580;2023-11-21T10:56:48;8.18;;;2.00;;
45236;SDS011;30973;51.442;3.580;2023-11-21T10:59:18;7.13;;;1.73;;
45236;SDS011;30973;51.442;3.580;2023-11-21T11:01:47;5.32;;;1.73;;
45236;SDS011;30973;51.442;3.580;2023-11-21T11:04:19;9.30;;;2.00;;
45236;SDS011;30973;51.442;3.580;2023-11-21T11:06:57;5.70;;;1.75;;
45236;SDS011;30973;51.442;3.580;2023-11-21T11:09:28;4.20;;;1.80;;
45236;SDS011;30973;51.442;3.580;2023-11-21T11:11:55;8.85;;;1.70;;
45236;SDS011;30973;51.442;3.580;2023-11-21T11:14:23;5.68;;;1.98;;
45236;SDS011;30973;51.442;3.580;2023-11-21T11:16:53;7.72;;;1.98;;
45236;SDS011;30973;51.442;3.580;2023-11-21T11:19:22;6.45;;;1.77;;
45236;SDS011;30973;51.442;3.580;2023-11-21T11:27:23;4.93;;;1.52;;
45236;SDS011;30973;51.442;3.580;2023-11-21T11:30:39;7.13;;;1.88;;
45236;SDS011;30973;51.442;3.580;2023-11-21T11:32:58;6.07;;;1.83;;
45236;SDS011;30973;51.442;3.580;2023-11-21T11:35:33;6.35;;;1.55;;
45236;SDS011;30973;51.442;3.580;2023-11-21T11:38:01;5.38;;;1.60;;
45236;SDS011;30973;51.442;3.580;2023-11-21T11:40:44;6.53;;;1.70;;
45236;SDS011;30973;51.442;3.580;2023-11-21T11:43:12;6.10;;;1.90;;
45236;SDS011;30973;51.442;3.580;2023-11-21T11:45:40;8.48;;;1.92;;
45236;SDS011;30973;51.442;3.580;2023-11-21T11:48:10;5.88;;;2.15;;
45236;SDS011;30973;51.442;3.580;2023-11-21T11:50:42;4.75;;;1.77;;
45236;SDS011;30973;51.442;3.580;2023-11-21T11:53:13;9.32;;;2.28;;
45236;SDS011;30973;51.442;3.580;2023-11-21T11:55:40;15.10;;;8.00;;
45236;SDS011;30973;51.442;3.580;2023-11-21T11:58:08;27.58;;;14.82;;
45236;SDS011;30973;51.442;3.580;2023-11-21T12:00:36;14.90;;;7.18;;
45236;SDS011;30973;51.442;3.580;2023-11-21T12:03:08;30.67;;;13.90;;
45236;SDS011;30973;51.442;3.580;2023-11-21T12:05:36;53.90;;;25.63;;
45236;SDS011;30973;51.442;3.580;2023-11-21T12:08:07;8.05;;;3.63;;
45236;SDS011;30973;51.442;3.580;2023-11-21T12:10:37;5.60;;;2.47;;
45236;SDS011;30973;51.442;3.580;2023-11-21T12:13:06;3.72;;;2.03;;
45236;SDS011;30973;51.442;3.580;2023-11-21T12:15:39;5.90;;;3.10;;
45236;SDS011;30973;51.442;3.580;2023-11-21T12:18:08;7.80;;;3.03;;
45236;SDS011;30973;51.442;3.580;2023-11-21T12:20:36;5.80;;;2.53;;
45236;SDS011;30973;51.442;3.580;2023-11-21T12:23:06;3.65;;;2.00;;
45236;SDS011;30973;51.442;3.580;2023-11-21T12:25:36;5.80;;;1.88;;
45236;SDS011;30973;51.442;3.580;2023-11-21T12:28:04;10.75;;;4.97;;
45236;SDS011;30973;51.442;3.580;2023-11-21T12:30:34;8.98;;;4.05;;
45236;SDS011;30973;51.442;3.580;2023-11-21T12:33:02;12.82;;;6.10;;
45236;SDS011;30973;51.442;3.580;2023-11-21T12:35:31;26.85;;;12.88;;
45236;SDS011;30973;51.442;3.580;2023-11-21T12:38:01;20.38;;;10.10;;
45236;SDS011;30973;51.442;3.580;2023-11-21T12:40:32;24.98;;;10.38;;
45236;SDS011;30973;51.442;3.580;2023-11-21T12:43:00;35.63;;;15.40;;
45236;SDS011;30973;51.442;3.580;2023-11-21T12:45:28;41.92;;;19.30;;
45236;SDS011;30973;51.442;3.580;2023-11-21T12:48:01;36.95;;;18.98;;
45236;SDS011;30973;51.442;3.580;2023-11-21T12:50:34;8.55;;;4.55;;
45236;SDS011;30973;51.442;3.580;2023-11-21T12:53:06;4.97;;;2.83;;
45236;SDS011;30973;51.442;3.580;2023-11-21T12:55:43;4.63;;;1.70;;
45236;SDS011;30973;51.442;3.580;2023-11-21T12:58:17;3.75;;;1.70;;
45236;SDS011;30973;51.442;3.580;2023-11-21T13:00:47;3.17;;;1.70;;
45236;SDS011;30973;51.442;3.580;2023-11-21T13:03:15;3.88;;;1.73;;
45236;SDS011;30973;51.442;3.580;2023-11-21T13:05:46;4.15;;;1.00;;
45236;SDS011;30973;51.442;3.580;2023-11-21T13:08:18;3.20;;;1.50;;
45236;SDS011;30973;51.442;3.580;2023-11-21T13:10:48;11.88;;;7.35;;
45236;SDS011;30973;51.442;3.580;2023-11-21T13:13:16;7.72;;;5.05;;
45236;SDS011;30973;51.442;3.580;2023-11-21T13:15:51;5.82;;;2.85;;
45236;SDS011;30973;51.442;3.580;2023-11-21T13:18:19;3.83;;;2.28;;
45236;SDS011;30973;51.442;3.580;2023-11-21T13:20:48;3.58;;;1.80;;
45236;SDS011;30973;51.442;3.580;2023-11-21T13:23:16;3.15;;;2.05;;
45236;SDS011;30973;51.442;3.580;2023-11-21T13:25:44;3.75;;;1.52;;
45236;SDS011;30973;51.442;3.580;2023-11-21T13:28:22;2.53;;;1.30;;
45236;SDS011;30973;51.442;3.580;2023-11-21T13:30:52;2.63;;;1.20;;
45236;SDS011;30973;51.442;3.580;2023-11-21T13:33:19;3.13;;;1.15;;
45236;SDS011;30973;51.442;3.580;2023-11-21T13:38:23;4.07;;;1.27;;
45236;SDS011;30973;51.442;3.580;2023-11-21T13:40:51;1.98;;;0.90;;
45236;SDS011;30973;51.442;3.580;2023-11-21T13:43:23;4.60;;;1.10;;
45236;SDS011;30973;51.442;3.580;2023-11-21T13:45:52;3.75;;;1.15;;
45236;SDS011;30973;51.442;3.580;2023-11-21T13:48:29;4.45;;;1.40;;
45236;SDS011;30973;51.442;3.580;2023-11-21T13:51:18;3.50;;;1.27;;
45236;SDS011;30973;51.442;3.580;2023-11-21T13:53:47;2.05;;;1.10;;
45236;SDS011;30973;51.442;3.580;2023-11-21T13:56:17;3.90;;;1.00;;
45236;SDS011;30973;51.442;3.580;2023-11-21T13:58:53;3.78;;;1.10;;
45236;SDS011;30973;51.442;3.580;2023-11-21T14:01:23;4.40;;;1.10;;
45236;SDS011;30973;51.442;3.580;2023-11-21T14:06:29;13.07;;;7.55;;
45236;SDS011;30973;51.442;3.580;2023-11-21T14:09:02;24.90;;;11.35;;
45236;SDS011;30973;51.442;3.580;2023-11-21T14:11:31;33.97;;;15.98;;
45236;SDS011;30973;51.442;3.580;2023-11-21T14:14:08;21.33;;;9.23;;
45236;SDS011;30973;51.442;3.580;2023-11-21T14:16:36;15.50;;;7.63;;
45236;SDS011;30973;51.442;3.580;2023-11-21T14:19:03;34.15;;;16.17;;
45236;SDS011;30973;51.442;3.580;2023-11-21T14:21:45;47.05;;;21.50;;
45236;SDS011;30973;51.442;3.580;2023-11-21T14:24:13;84.63;;;35.20;;
45236;SDS011;30973;51.442;3.580;2023-11-21T14:26:44;69.00;;;28.33;;
45236;SDS011;30973;51.442;3.580;2023-11-21T14:29:15;71.20;;;29.55;;
45236;SDS011;30973;51.442;3.580;2023-11-21T14:31:47;51.05;;;21.67;;
45236;SDS011;30973;51.442;3.580;2023-11-21T14:34:15;84.25;;;32.97;;
45236;SDS011;30973;51.442;3.580;2023-11-21T14:36:47;131.45;;;48.40;;
45236;SDS011;30973;51.442;3.580;2023-11-21T14:39:15;22.05;;;11.93;;
45236;SDS011;30973;51.442;3.580;2023-11-21T14:41:51;8.30;;;5.22;;
45236;SDS011;30973;51.442;3.580;2023-11-21T14:44:19;3.30;;;1.65;;
45236;SDS011;30973;51.442;3.580;2023-11-21T14:46:50;4.25;;;1.55;;
45236;SDS011;30973;51.442;3.580;2023-11-21T14:49:19;2.83;;;1.23;;
45236;SDS011;30973;51.442;3.580;2023-11-21T14:51:47;4.47;;;1.27;;
45236;SDS011;30973;51.442;3.580;2023-11-21T14:54:36;3.45;;;1.48;;
45236;SDS011;30973;51.442;3.580;2023-11-21T14:57:08;3.95;;;1.30;;
45236;SDS011;30973;51.442;3.580;2023-11-21T14:59:48;3.75;;;1.50;;
45236;SDS011;30973;51.442;3.580;2023-11-21T15:02:19;2.95;;;1.60;;
45236;SDS011;30973;51.442;3.580;2023-11-21T15:05:06;4.05;;;1.10;;
45236;SDS011;30973;51.442;3.580;2023-11-21T15:07:35;4.28;;;1.42;;
45236;SDS011;30973;51.442;3.580;2023-11-21T15:10:02;4.05;;;1.80;;
45236;SDS011;30973;51.442;3.580;2023-11-21T15:12:30;3.40;;;1.30;;
45236;SDS011;30973;51.442;3.580;2023-11-21T15:15:00;3.05;;;1.35;;
45236;SDS011;30973;51.442;3.580;2023-11-21T15:17:30;3.42;;;1.60;;
45236;SDS011;30973;51.442;3.580;2023-11-21T15:19:58;4.18;;;1.50;;